Time;durP1;ratioP1;P1;durP2;ratioP2;P2;SDS_P1;SDS_P2;PMS_P1;PMS_P2;Temp;Humidity;BMP_temperature;BMP_pressure;BME280_temperature;BME280_humidity;BME280_pressure;Samples;Min_cycle;Max_cycle;Signal;HPM_P1;HPM_P2
2023/02/13 00:02:18;;;;;;;30.50;18.00;;;;;;;;;;5034486;28;20843;-45
2023/02/13 00:04:44;;;;;;;30.97;18.10;;;;;;;;;;5030042;28;20434;-45
2023/02/13 00:07:13;;;;;;;30.30;17.33;;;;;;;;;;5033960;28;20515;-45
2023/02/13 00:09:39;;;;;;;33.27;15.47;;;;;;;;;;5034017;28;20797;-45
2023/02/13 00:12:06;;;;;;;30.63;18.37;;;;;;;;;;5034185;28;20441;-45
2023/02/13 00:14:34;;;;;;;25.97;16.87;;;;;;;;;;5033575;28;20428;-45
2023/02/13 00:17:00;;;;;;;30.10;16.57;;;;;;;;;;5034324;28;20408;-45
2023/02/13 00:19:26;;;;;;;30.50;17.40;;;;;;;;;;5034073;28;20894;-45
2023/02/13 00:21:52;;;;;;;34.60;19.03;;;;;;;;;;5033920;28;20433;-45
2023/02/13 00:24:18;;;;;;;25.60;16.50;;;;;;;;;;5032356;28;20410;-45
2023/02/13 00:26:44;;;;;;;26.23;15.80;;;;;;;;;;5033521;28;20414;-45
2023/02/13 00:29:10;;;;;;;24.13;15.97;;;;;;;;;;5033646;28;20561;-44
2023/02/13 00:31:36;;;;;;;25.20;15.10;;;;;;;;;;5033634;28;20418;-45
2023/02/13 00:34:02;;;;;;;28.10;16.70;;;;;;;;;;5032095;28;20761;-45
2023/02/13 00:36:28;;;;;;;23.73;15.07;;;;;;;;;;5033212;28;20398;-45
2023/02/13 00:38:54;;;;;;;23.90;15.83;;;;;;;;;;5033747;28;20492;-45
2023/02/13 00:41:21;;;;;;;29.37;16.80;;;;;;;;;;5033489;28;20420;-45
2023/02/13 00:43:48;;;;;;;32.30;17.60;;;;;;;;;;5032866;28;20430;-45
2023/02/13 00:46:14;;;;;;;24.20;15.10;;;;;;;;;;5033050;28;20768;-44
2023/02/13 00:48:39;;;;;;;34.60;17.90;;;;;;;;;;5033378;28;20863;-45
2023/02/13 00:51:06;;;;;;;26.00;15.83;;;;;;;;;;5040182;28;20403;-45
2023/02/13 00:53:33;;;;;;;29.67;16.20;;;;;;;;;;5033251;28;20458;-45
2023/02/13 00:55:59;;;;;;;24.77;15.03;;;;;;;;;;5032817;28;20776;-45
2023/02/13 00:58:25;;;;;;;25.63;14.83;;;;;;;;;;5033445;28;20479;-45
2023/02/13 01:00:52;;;;;;;24.80;14.27;;;;;;;;;;5031570;28;20432;-45
2023/02/13 01:03:18;;;;;;;26.20;13.70;;;;;;;;;;5032923;28;20521;-45
2023/02/13 01:05:45;;;;;;;23.27;15.10;;;;;;;;;;5032532;28;20500;-45
2023/02/13 01:08:11;;;;;;;23.33;13.60;;;;;;;;;;5033007;28;20449;-45
2023/02/13 01:10:38;;;;;;;19.73;12.13;;;;;;;;;;5033207;28;20402;-45
2023/02/13 01:13:04;;;;;;;16.43;10.63;;;;;;;;;;5032820;28;20446;-45
2023/02/13 01:15:31;;;;;;;18.70;10.90;;;;;;;;;;5032201;28;20418;-45
2023/02/13 01:17:57;;;;;;;14.40;9.20;;;;;;;;;;5032624;28;20454;-45
2023/02/13 01:20:24;;;;;;;13.93;8.43;;;;;;;;;;5032899;28;20414;-45
2023/02/13 01:22:50;;;;;;;10.33;6.20;;;;;;;;;;5032800;28;20441;-44
2023/02/13 01:25:16;;;;;;;14.17;8.80;;;;;;;;;;5032119;28;20909;-45
2023/02/13 01:27:42;;;;;;;11.87;7.57;;;;;;;;;;5032549;28;20449;-45
2023/02/13 01:30:12;;;;;;;11.53;7.40;;;;;;;;;;5032876;28;20409;-45
2023/02/13 01:32:38;;;;;;;15.60;8.00;;;;;;;;;;5032340;28;20524;-45
2023/02/13 01:35:04;;;;;;;11.03;7.70;;;;;;;;;;5032236;28;20409;-45
2023/02/13 01:37:30;;;;;;;9.10;7.03;;;;;;;;;;5032442;28;20428;-44
2023/02/13 01:39:56;;;;;;;12.37;6.83;;;;;;;;;;5032730;28;20418;-45
2023/02/13 01:42:25;;;;;;;9.37;6.07;;;;;;;;;;5032386;28;20441;-45
2023/02/13 01:44:57;;;;;;;8.53;5.97;;;;;;;;;;5031495;28;20448;-45
2023/02/13 01:47:28;;;;;;;9.07;5.97;;;;;;;;;;5032403;28;20457;-45
2023/02/13 01:50:07;;;;;;;9.13;5.60;;;;;;;;;;5032480;28;20406;-45
2023/02/13 01:52:34;;;;;;;6.97;5.03;;;;;;;;;;5031323;28;20417;-45
2023/02/13 01:55:00;;;;;;;8.17;5.10;;;;;;;;;;5031541;28;20408;-44
2023/02/13 01:57:28;;;;;;;7.53;5.50;;;;;;;;;;5031829;28;20413;-45
2023/02/13 02:00:00;;;;;;;6.90;5.10;;;;;;;;;;5032201;28;20420;-45
2023/02/13 02:02:26;;;;;;;7.53;5.23;;;;;;;;;;5031883;28;20427;-45
2023/02/13 02:04:53;;;;;;;7.70;5.20;;;;;;;;;;5030789;28;20424;-45
2023/02/13 02:07:21;;;;;;;7.67;5.10;;;;;;;;;;5032494;28;20457;-43
2023/02/13 02:09:47;;;;;;;7.57;6.00;;;;;;;;;;5031772;28;20413;-43
2023/02/13 02:12:28;;;;;;;10.33;5.63;;;;;;;;;;5031682;28;20449;-43
2023/02/13 02:14:55;;;;;;;6.13;5.00;;;;;;;;;;5025129;28;20413;-43
2023/02/13 02:17:23;;;;;;;5.50;4.73;;;;;;;;;;5031842;28;20442;-44
2023/02/13 02:19:49;;;;;;;8.13;5.00;;;;;;;;;;5031862;28;20799;-43
2023/02/13 02:22:21;;;;;;;7.87;5.40;;;;;;;;;;5032248;28;20440;-42
2023/02/13 02:24:55;;;;;;;7.10;5.33;;;;;;;;;;5023527;28;20656;-43
2023/02/13 02:27:38;;;;;;;7.50;5.37;;;;;;;;;;5031445;28;20537;-43
2023/02/13 02:30:13;;;;;;;10.23;5.30;;;;;;;;;;5031969;28;20546;-43
2023/02/13 02:32:48;;;;;;;7.57;5.20;;;;;;;;;;5031437;28;20444;-43
2023/02/13 02:35:34;;;;;;;6.60;4.73;;;;;;;;;;5030824;28;20947;-46
2023/02/13 02:38:19;;;;;;;9.77;6.37;;;;;;;;;;5015089;28;20421;-46
2023/02/13 02:40:57;;;;;;;8.03;5.67;;;;;;;;;;5025428;28;20517;-45
2023/02/13 02:43:28;;;;;;;7.23;5.20;;;;;;;;;;5028667;28;20429;-45
2023/02/13 02:46:12;;;;;;;6.77;5.97;;;;;;;;;;5031017;28;20414;-45
2023/02/13 02:51:59;;;;;;;9.23;5.93;;;;;;;;;;5031024;28;20409;-45
2023/02/13 02:57:22;;;;;;;8.13;4.87;;;;;;;;;;5032535;28;20405;-45
2023/02/13 03:08:09;;;;;;;8.47;4.63;;;;;;;;;;5035347;28;20472;-45
2023/02/13 03:13:51;;;;;;;6.20;4.97;;;;;;;;;;5035315;28;20538;-46
2023/02/13 03:24:45;;;;;;;7.33;5.40;;;;;;;;;;5026661;28;20418;-46
2023/02/13 03:30:26;;;;;;;7.43;5.17;;;;;;;;;;5031071;28;20428;-46
2023/02/13 03:33:22;;;;;;;6.80;5.43;;;;;;;;;;5028150;28;20966;-45
2023/02/13 03:38:48;;;;;;;6.37;4.90;;;;;;;;;;5027451;28;20923;-46
2023/02/13 03:41:18;;;;;;;6.73;4.90;;;;;;;;;;5034774;28;20421;-46
2023/02/13 03:43:48;;;;;;;6.20;4.60;;;;;;;;;;5026200;28;20515;-46
2023/02/13 03:46:15;;;;;;;8.20;4.40;;;;;;;;;;5035062;28;20558;-46
2023/02/13 03:51:36;;;;;;;4.90;4.07;;;;;;;;;;5034602;28;20448;-45
2023/02/13 03:54:06;;;;;;;5.10;4.60;;;;;;;;;;5033810;28;20839;-45
2023/02/13 03:59:21;;;;;;;5.33;4.23;;;;;;;;;;5034473;28;20419;-45
2023/02/13 04:02:07;;;;;;;6.77;4.70;;;;;;;;;;5034450;28;20441;-45
2023/02/13 04:04:39;;;;;;;4.40;3.90;;;;;;;;;;5033329;28;20420;-45
2023/02/13 04:07:28;;;;;;;3.90;3.50;;;;;;;;;;5034162;28;20488;-45
2023/02/13 04:09:54;;;;;;;7.17;3.70;;;;;;;;;;5027849;28;20414;-45
2023/02/13 04:12:27;;;;;;;6.63;4.63;;;;;;;;;;5034059;28;20445;-45
2023/02/13 04:15:05;;;;;;;7.10;5.20;;;;;;;;;;5033514;28;21022;-45
2023/02/13 04:17:34;;;;;;;7.83;4.47;;;;;;;;;;5034118;28;20824;-45
2023/02/13 04:20:01;;;;;;;5.97;4.70;;;;;;;;;;5034208;28;20839;-45
2023/02/13 04:22:27;;;;;;;6.17;4.23;;;;;;;;;;5033848;28;20813;-45
2023/02/13 04:24:53;;;;;;;5.77;4.37;;;;;;;;;;5033312;28;20432;-45
2023/02/13 04:27:19;;;;;;;7.00;5.43;;;;;;;;;;5033795;28;20563;-45
2023/02/13 04:29:45;;;;;;;6.87;4.80;;;;;;;;;;5033560;28;20413;-45
2023/02/13 04:32:13;;;;;;;8.53;5.50;;;;;;;;;;5033828;28;20433;-44
2023/02/13 04:34:39;;;;;;;7.17;4.93;;;;;;;;;;5032814;28;20416;-45
2023/02/13 04:37:05;;;;;;;7.97;5.10;;;;;;;;;;5033850;28;20420;-44
2023/02/13 04:39:31;;;;;;;6.00;5.40;;;;;;;;;;5033522;28;20491;-44
2023/02/13 04:41:58;;;;;;;7.90;5.40;;;;;;;;;;5033695;28;20961;-45
2023/02/13 04:44:24;;;;;;;6.50;5.17;;;;;;;;;;5033060;28;20804;-45
2023/02/13 04:46:50;;;;;;;7.33;5.20;;;;;;;;;;5034154;28;20478;-45
2023/02/13 04:49:16;;;;;;;8.80;6.00;;;;;;;;;;5033369;28;20469;-44
2023/02/13 04:51:42;;;;;;;9.97;6.77;;;;;;;;;;5026472;28;20435;-44
2023/02/13 04:54:08;;;;;;;6.43;5.67;;;;;;;;;;5033491;28;20420;-45
2023/02/13 04:56:34;;;;;;;8.53;5.87;;;;;;;;;;5034101;28;20447;-44
2023/02/13 04:59:00;;;;;;;8.80;5.73;;;;;;;;;;5034306;28;20420;-45
2023/02/13 05:01:26;;;;;;;10.00;5.40;;;;;;;;;;5033897;28;20470;-44
2023/02/13 05:03:52;;;;;;;6.77;5.37;;;;;;;;;;5033044;28;20850;-44
2023/02/13 05:06:18;;;;;;;7.90;5.47;;;;;;;;;;5033823;28;20421;-45
2023/02/13 05:08:44;;;;;;;11.37;6.50;;;;;;;;;;5033740;28;20973;-44
2023/02/13 05:11:09;;;;;;;15.40;7.27;;;;;;;;;;5033954;28;20963;-44
2023/02/13 05:13:36;;;;;;;9.37;5.77;;;;;;;;;;5033251;28;20488;-44
2023/02/13 05:16:03;;;;;;;10.27;6.77;;;;;;;;;;5033459;28;20504;-44
2023/02/13 05:18:29;;;;;;;14.00;7.00;;;;;;;;;;5033446;28;20499;-44
2023/02/13 05:23:42;;;;;;;12.87;6.90;;;;;;;;;;5033320;28;21056;-44
2023/02/13 05:26:08;;;;;;;11.97;7.40;;;;;;;;;;5033381;28;20601;-44
2023/02/13 05:31:19;;;;;;;10.40;5.90;;;;;;;;;;5033555;28;20442;-44
2023/02/13 05:33:45;;;;;;;9.83;5.70;;;;;;;;;;5032779;28;20425;-45
2023/02/13 05:36:11;;;;;;;10.27;6.13;;;;;;;;;;5032891;28;20410;-44
2023/02/13 05:38:40;;;;;;;9.00;6.20;;;;;;;;;;5032093;28;20922;-44
2023/02/13 05:41:06;;;;;;;9.73;6.23;;;;;;;;;;5031696;28;20527;-44
2023/02/13 05:43:32;;;;;;;10.90;6.70;;;;;;;;;;5031490;28;20440;-44
2023/02/13 05:46:04;;;;;;;13.00;6.77;;;;;;;;;;5030442;28;20416;-45
2023/02/13 05:48:31;;;;;;;11.40;7.37;;;;;;;;;;5032890;28;20473;-45
2023/02/13 05:50:57;;;;;;;14.70;7.27;;;;;;;;;;5032858;28;20903;-45
2023/02/13 05:53:23;;;;;;;9.33;5.70;;;;;;;;;;5032679;28;20440;-44
2023/02/13 05:55:51;;;;;;;11.30;6.90;;;;;;;;;;5031952;28;20969;-45
2023/02/13 05:58:17;;;;;;;9.23;6.60;;;;;;;;;;5031681;28;20541;-45
2023/02/13 06:00:43;;;;;;;9.17;6.23;;;;;;;;;;5031891;28;21033;-43
2023/02/13 06:03:08;;;;;;;10.00;6.60;;;;;;;;;;5031581;28;20570;-46
2023/02/13 06:05:34;;;;;;;12.40;6.53;;;;;;;;;;5031038;28;20477;-46
2023/02/13 06:08:03;;;;;;;12.13;7.07;;;;;;;;;;5031474;28;20822;-46
2023/02/13 06:10:30;;;;;;;12.60;6.63;;;;;;;;;;5031503;28;20465;-46
2023/02/13 06:12:56;;;;;;;10.10;6.30;;;;;;;;;;5031382;28;20451;-46
2023/02/13 06:15:22;;;;;;;10.53;6.97;;;;;;;;;;5030917;28;20495;-46
2023/02/13 06:17:48;;;;;;;13.43;7.07;;;;;;;;;;5031693;28;20416;-45
2023/02/13 06:20:14;;;;;;;12.53;6.70;;;;;;;;;;5031350;28;20986;-47
2023/02/13 06:22:40;;;;;;;11.80;7.37;;;;;;;;;;5031326;28;20779;-46
2023/02/13 06:25:07;;;;;;;11.77;7.23;;;;;;;;;;5031075;28;20415;-45
2023/02/13 06:27:33;;;;;;;11.87;6.40;;;;;;;;;;5031685;28;20466;-45
2023/02/13 06:29:59;;;;;;;13.87;7.43;;;;;;;;;;5031943;28;20403;-45
2023/02/13 06:32:25;;;;;;;13.73;7.53;;;;;;;;;;5030922;28;20511;-45
2023/02/13 06:34:51;;;;;;;11.73;6.10;;;;;;;;;;5031147;28;20404;-46
2023/02/13 06:37:17;;;;;;;16.27;7.20;;;;;;;;;;5031737;28;20427;-45
2023/02/13 06:39:44;;;;;;;12.90;7.33;;;;;;;;;;5031628;28;20491;-45
2023/02/13 06:42:13;;;;;;;9.97;7.30;;;;;;;;;;5031669;28;20436;-46
2023/02/13 06:44:39;;;;;;;11.33;7.17;;;;;;;;;;5030869;28;20803;-46
2023/02/13 06:47:05;;;;;;;17.03;8.90;;;;;;;;;;5030540;28;20408;-45
2023/02/13 06:49:30;;;;;;;11.03;7.53;;;;;;;;;;5031538;28;20406;-45
2023/02/13 06:51:56;;;;;;;12.97;7.50;;;;;;;;;;5031611;28;20847;-45
2023/02/13 06:54:22;;;;;;;11.80;7.27;;;;;;;;;;5031005;28;20907;-46
2023/02/13 06:56:48;;;;;;;12.23;6.80;;;;;;;;;;5031432;28;20969;-45
2023/02/13 06:59:14;;;;;;;13.70;7.40;;;;;;;;;;5036136;28;20423;-45
2023/02/13 07:01:40;;;;;;;15.50;8.17;;;;;;;;;;5031601;28;20412;-44
2023/02/13 07:04:06;;;;;;;13.77;8.00;;;;;;;;;;5035800;28;20416;-44
2023/02/13 07:06:32;;;;;;;12.20;7.60;;;;;;;;;;5034146;28;20415;-44
2023/02/13 07:08:58;;;;;;;12.23;7.50;;;;;;;;;;5033249;28;20966;-43
2023/02/13 07:11:25;;;;;;;12.23;8.07;;;;;;;;;;5032337;28;20914;-44
2023/02/13 07:13:52;;;;;;;15.47;8.80;;;;;;;;;;5032526;28;20465;-46
2023/02/13 07:16:21;;;;;;;14.00;7.90;;;;;;;;;;5041256;28;20410;-45
2023/02/13 07:18:47;;;;;;;15.70;8.50;;;;;;;;;;5034552;28;20456;-44
2023/02/13 07:21:13;;;;;;;19.03;8.37;;;;;;;;;;5034125;28;20473;-42
2023/02/13 07:23:39;;;;;;;14.97;8.67;;;;;;;;;;5034465;28;20853;-45
2023/02/13 07:26:05;;;;;;;13.87;8.40;;;;;;;;;;5033226;28;20465;-47
2023/02/13 07:29:04;;;;;;;24.80;11.70;;;;;;;;;;5821370;22;20510;-43
2023/02/13 07:31:32;;;;;;;13.40;7.80;;;;;;;;;;5005707;28;20903;-47
2023/02/13 07:33:59;;;;;;;15.63;7.87;;;;;;;;;;5009710;28;20428;-45
2023/02/13 07:36:25;;;;;;;23.00;8.80;;;;;;;;;;5009564;28;20961;-45
2023/02/13 07:38:51;;;;;;;12.57;8.03;;;;;;;;;;5005016;28;20460;-45
2023/02/13 07:41:17;;;;;;;10.73;7.53;;;;;;;;;;4990476;28;20442;-45
2023/02/13 07:43:43;;;;;;;12.77;7.80;;;;;;;;;;4993582;28;20473;-44
2023/02/13 07:46:09;;;;;;;12.00;7.47;;;;;;;;;;4995485;28;20418;-47
2023/02/13 07:48:35;;;;;;;14.50;8.90;;;;;;;;;;4997274;28;21149;-47
2023/02/13 07:51:02;;;;;;;10.93;7.63;;;;;;;;;;4995134;28;20406;-47
2023/02/13 07:53:28;;;;;;;13.17;8.63;;;;;;;;;;4995316;28;20429;-45
2023/02/13 07:55:54;;;;;;;12.77;7.27;;;;;;;;;;4995176;28;20553;-46
2023/02/13 07:58:19;;;;;;;10.23;7.57;;;;;;;;;;4994072;28;20507;-44
2023/02/13 08:00:46;;;;;;;12.10;7.40;;;;;;;;;;4994648;28;20416;-47
2023/02/13 08:03:11;;;;;;;10.40;6.20;;;;;;;;;;4995214;28;20423;-47
2023/02/13 08:05:38;;;;;;;12.93;6.53;;;;;;;;;;4995069;28;20420;-47
2023/02/13 08:08:04;;;;;;;11.13;6.27;;;;;;;;;;4994900;28;20458;-46
2023/02/13 08:13:15;;;;;;;9.43;6.30;;;;;;;;;;4987233;28;20408;-48
2023/02/13 08:15:43;;;;;;;13.30;8.60;;;;;;;;;;4994937;28;20412;-47
2023/02/13 08:18:09;;;;;;;10.87;6.60;;;;;;;;;;4994040;28;21187;-47
2023/02/13 08:20:35;;;;;;;7.67;6.07;;;;;;;;;;4994088;28;20455;-46
2023/02/13 08:23:05;;;;;;;8.80;6.43;;;;;;;;;;4994833;28;20420;-47
2023/02/13 08:25:31;;;;;;;9.90;6.53;;;;;;;;;;4994536;28;20848;-46
2023/02/13 08:27:58;;;;;;;10.10;6.30;;;;;;;;;;4994577;28;20463;-45
2023/02/13 08:30:24;;;;;;;9.00;6.73;;;;;;;;;;4993663;28;20433;-46
2023/02/13 08:32:50;;;;;;;12.20;7.87;;;;;;;;;;4994304;28;20438;-45
2023/02/13 08:35:16;;;;;;;7.13;5.50;;;;;;;;;;4994691;28;20421;-46
2023/02/13 08:37:42;;;;;;;10.80;6.10;;;;;;;;;;4994456;28;20503;-45
2023/02/13 08:40:11;;;;;;;8.33;6.00;;;;;;;;;;4993529;28;21092;-45
2023/02/13 08:42:38;;;;;;;8.13;6.03;;;;;;;;;;4994118;28;20417;-44
2023/02/13 08:45:04;;;;;;;7.63;5.53;;;;;;;;;;4994334;28;20456;-44
2023/02/13 08:47:30;;;;;;;8.47;6.90;;;;;;;;;;4994282;28;20589;-47
2023/02/13 08:49:56;;;;;;;8.77;6.10;;;;;;;;;;4993445;28;20917;-47
2023/02/13 08:52:22;;;;;;;9.27;6.43;;;;;;;;;;4994000;28;20506;-46
2023/02/13 08:54:48;;;;;;;8.50;5.70;;;;;;;;;;4992260;28;20411;-44
2023/02/13 08:57:14;;;;;;;10.30;5.43;;;;;;;;;;4994068;28;20411;-44
2023/02/13 08:59:40;;;;;;;6.60;5.17;;;;;;;;;;4993339;28;20514;-44
2023/02/13 09:02:06;;;;;;;8.30;6.33;;;;;;;;;;4993937;28;20439;-44
2023/02/13 09:04:33;;;;;;;6.33;5.00;;;;;;;;;;4994130;28;20401;-44
2023/02/13 09:06:59;;;;;;;6.93;5.27;;;;;;;;;;4993910;28;20404;-44
2023/02/13 09:09:25;;;;;;;6.67;5.80;;;;;;;;;;4992885;28;20502;-45
2023/02/13 09:11:52;;;;;;;6.57;5.30;;;;;;;;;;4993547;28;20416;-44
2023/02/13 09:14:18;;;;;;;5.93;4.93;;;;;;;;;;4993735;28;20438;-44
2023/02/13 09:16:44;;;;;;;9.63;6.00;;;;;;;;;;4993740;28;20406;-44
2023/02/13 09:19:10;;;;;;;9.40;6.60;;;;;;;;;;4998160;28;20505;-44
2023/02/13 09:21:36;;;;;;;12.20;6.33;;;;;;;;;;5005711;28;20428;-44
2023/02/13 09:24:02;;;;;;;6.77;5.27;;;;;;;;;;4995508;28;20432;-44
2023/02/13 09:26:28;;;;;;;6.90;4.67;;;;;;;;;;4993114;28;20519;-44
2023/02/13 09:28:54;;;;;;;8.80;5.60;;;;;;;;;;4992374;28;20478;-44
2023/02/13 09:31:20;;;;;;;11.40;6.50;;;;;;;;;;4992762;28;20764;-44
2023/02/13 09:33:47;;;;;;;10.20;6.20;;;;;;;;;;4993276;28;20734;-45
2023/02/13 09:36:14;;;;;;;7.30;5.97;;;;;;;;;;4992765;28;20739;-44
2023/02/13 09:38:44;;;;;;;7.23;6.33;;;;;;;;;;4984082;28;20504;-44
2023/02/13 09:41:14;;;;;;;6.77;5.90;;;;;;;;;;4973461;28;20421;-45
2023/02/13 09:43:43;;;;;;;8.13;5.67;;;;;;;;;;4973207;28;20436;-44
2023/02/13 09:46:32;;;;;;;7.93;5.87;;;;;;;;;;4973434;28;20455;-45
2023/02/13 09:48:59;;;;;;;6.90;5.13;;;;;;;;;;4969381;28;20468;-43
2023/02/13 09:51:27;;;;;;;6.50;5.70;;;;;;;;;;4973620;28;20401;-43
2023/02/13 09:53:56;;;;;;;7.97;6.20;;;;;;;;;;4973341;28;20416;-46
2023/02/13 09:56:41;;;;;;;7.20;6.30;;;;;;;;;;4988889;28;20763;-42
2023/02/13 09:59:17;;;;;;;10.20;5.80;;;;;;;;;;4991728;28;20439;-42
2023/02/13 10:01:45;;;;;;;6.60;5.20;;;;;;;;;;4992871;28;20569;-44
2023/02/13 10:04:23;;;;;;;5.40;4.90;;;;;;;;;;4992488;28;20903;-46
2023/02/13 10:06:54;;;;;;;5.73;4.87;;;;;;;;;;4992791;28;20423;-43
2023/02/13 10:09:32;;;;;;;6.60;5.27;;;;;;;;;;4991909;28;20471;-45
2023/02/13 10:12:14;;;;;;;6.40;5.40;;;;;;;;;;4993150;28;20420;-43
2023/02/13 10:14:52;;;;;;;5.80;5.30;;;;;;;;;;4991932;28;20511;-46
2023/02/13 10:17:26;;;;;;;6.53;5.70;;;;;;;;;;4985473;28;20422;-46
2023/02/13 10:20:04;;;;;;;8.90;5.67;;;;;;;;;;4991742;28;20992;-42
2023/02/13 10:22:35;;;;;;;6.07;5.10;;;;;;;;;;4992459;28;20742;-42
2023/02/13 10:25:03;;;;;;;7.00;5.87;;;;;;;;;;4992533;28;20403;-43
2023/02/13 10:27:38;;;;;;;7.40;5.97;;;;;;;;;;4992591;28;20415;-42
2023/02/13 10:30:23;;;;;;;7.47;4.93;;;;;;;;;;4991560;28;20438;-42
2023/02/13 10:32:49;;;;;;;6.80;5.80;;;;;;;;;;4992214;28;20479;-43
2023/02/13 10:35:21;;;;;;;7.20;5.63;;;;;;;;;;4992583;28;20408;-42
2023/02/13 10:37:49;;;;;;;6.67;5.13;;;;;;;;;;4992451;28;20416;-43
2023/02/13 10:40:16;;;;;;;6.40;5.50;;;;;;;;;;4984021;28;20441;-42
2023/02/13 10:42:46;;;;;;;8.40;6.30;;;;;;;;;;4992458;28;20825;-42
2023/02/13 10:45:31;;;;;;;8.20;6.20;;;;;;;;;;4992229;28;20408;-42
2023/02/13 10:47:57;;;;;;;9.00;6.17;;;;;;;;;;4992128;28;20491;-45
2023/02/13 10:50:53;;;;;;;6.67;6.00;;;;;;;;;;4991598;28;20420;-45
2023/02/13 10:53:23;;;;;;;8.60;6.10;;;;;;;;;;4979137;28;20416;-43
2023/02/13 10:55:49;;;;;;;9.00;5.77;;;;;;;;;;4992311;28;20427;-47
2023/02/13 10:58:18;;;;;;;6.73;6.03;;;;;;;;;;4992019;28;20473;-42
2023/02/13 11:00:47;;;;;;;10.13;5.63;;;;;;;;;;4991673;28;20408;-42
2023/02/13 11:03:21;;;;;;;8.87;6.03;;;;;;;;;;4992022;28;21188;-43
2023/02/13 11:05:47;;;;;;;8.20;5.97;;;;;;;;;;4992118;28;20413;-43
2023/02/13 11:08:17;;;;;;;7.80;5.20;;;;;;;;;;4991825;28;20467;-43
2023/02/13 11:10:43;;;;;;;7.43;5.80;;;;;;;;;;4991429;28;20420;-44
2023/02/13 11:13:16;;;;;;;7.67;5.63;;;;;;;;;;4990688;28;20412;-46
2023/02/13 11:15:42;;;;;;;6.50;5.53;;;;;;;;;;4991996;28;20497;-42
2023/02/13 11:18:18;;;;;;;5.43;4.87;;;;;;;;;;4992833;28;20504;-43
2023/02/13 11:20:46;;;;;;;8.87;6.20;;;;;;;;;;4995455;28;20832;-43
2023/02/13 11:23:15;;;;;;;6.40;5.50;;;;;;;;;;4996031;28;20430;-43
2023/02/13 11:25:41;;;;;;;7.20;6.00;;;;;;;;;;4999501;28;20419;-42
2023/02/13 11:28:18;;;;;;;10.53;6.10;;;;;;;;;;4995669;28;20565;-42
2023/02/13 11:30:44;;;;;;;9.63;5.93;;;;;;;;;;4995124;28;20782;-46
2023/02/13 11:33:27;;;;;;;7.30;5.60;;;;;;;;;;4995661;28;20438;-43
2023/02/13 11:36:07;;;;;;;6.70;5.70;;;;;;;;;;4995695;28;20443;-41
2023/02/13 11:38:33;;;;;;;5.73;5.07;;;;;;;;;;4995148;28;20411;-43
2023/02/13 11:41:06;;;;;;;7.90;5.80;;;;;;;;;;4995273;28;20438;-44
2023/02/13 11:43:50;;;;;;;5.97;5.37;;;;;;;;;;4995516;28;20403;-42
2023/02/13 11:46:23;;;;;;;6.50;4.70;;;;;;;;;;4987923;28;20776;-43
2023/02/13 11:48:56;;;;;;;5.13;4.63;;;;;;;;;;4994533;28;20882;-46
2023/02/13 11:51:34;;;;;;;6.57;5.63;;;;;;;;;;4995340;28;20941;-43
2023/02/13 11:54:00;;;;;;;6.87;5.87;;;;;;;;;;4995009;28;20415;-42
2023/02/13 11:56:26;;;;;;;7.03;5.07;;;;;;;;;;4995531;28;20415;-42
2023/02/13 11:59:01;;;;;;;9.80;6.43;;;;;;;;;;4994815;28;20431;-43
2023/02/13 12:01:28;;;;;;;10.73;5.13;;;;;;;;;;4995343;28;20416;-43
2023/02/13 12:04:02;;;;;;;9.40;6.10;;;;;;;;;;4995338;28;20464;-42
2023/02/13 12:06:28;;;;;;;5.80;5.20;;;;;;;;;;4994935;28;20415;-42
2023/02/13 12:08:54;;;;;;;8.80;5.77;;;;;;;;;;4994271;28;21030;-42
2023/02/13 12:11:23;;;;;;;5.80;4.60;;;;;;;;;;4987559;28;20404;-42
2023/02/13 12:13:49;;;;;;;6.30;4.77;;;;;;;;;;4994990;28;20404;-46
2023/02/13 12:16:24;;;;;;;6.40;5.30;;;;;;;;;;4994818;28;20403;-42
2023/02/13 12:18:52;;;;;;;9.10;5.80;;;;;;;;;;4994005;28;20424;-43
2023/02/13 12:21:27;;;;;;;7.43;4.90;;;;;;;;;;4994826;28;20463;-43
2023/02/13 12:24:11;;;;;;;6.33;5.37;;;;;;;;;;4998480;28;20403;-42
2023/02/13 12:26:47;;;;;;;5.90;5.30;;;;;;;;;;4993566;28;20423;-43
2023/02/13 12:29:22;;;;;;;5.27;4.77;;;;;;;;;;4991564;28;20467;-43
2023/02/13 12:31:48;;;;;;;6.37;5.17;;;;;;;;;;4992763;28;20434;-46
2023/02/13 12:34:17;;;;;;;6.93;5.30;;;;;;;;;;4994256;28;20894;-42
2023/02/13 12:37:06;;;;;;;7.70;5.70;;;;;;;;;;4993776;28;20797;-42
2023/02/13 12:39:34;;;;;;;6.37;5.00;;;;;;;;;;4978385;28;20940;-42
2023/02/13 12:42:19;;;;;;;8.47;5.37;;;;;;;;;;4994402;28;20498;-42
2023/02/13 12:45:00;;;;;;;6.43;5.00;;;;;;;;;;4994522;28;20422;-42
2023/02/13 12:47:28;;;;;;;6.77;5.57;;;;;;;;;;4991825;28;20787;-43
2023/02/13 12:50:01;;;;;;;8.70;5.70;;;;;;;;;;4993574;28;20526;-42
2023/02/13 12:52:34;;;;;;;7.90;4.90;;;;;;;;;;4994578;28;20414;-42
2023/02/13 12:55:19;;;;;;;7.10;5.40;;;;;;;;;;4994410;28;20455;-44
2023/02/13 12:57:53;;;;;;;7.20;5.80;;;;;;;;;;4993539;28;20415;-42
2023/02/13 13:00:18;;;;;;;6.97;5.10;;;;;;;;;;4986224;28;20447;-45
2023/02/13 13:02:44;;;;;;;6.90;4.30;;;;;;;;;;4994060;28;20410;-46
2023/02/13 13:05:23;;;;;;;7.90;5.63;;;;;;;;;;4994223;28;20403;-42
2023/02/13 13:07:57;;;;;;;4.97;4.53;;;;;;;;;;4993918;28;20512;-44
2023/02/13 13:10:31;;;;;;;5.57;4.60;;;;;;;;;;4993273;28;20426;-44
2023/02/13 13:13:17;;;;;;;6.23;4.60;;;;;;;;;;4993883;28;20482;-42
2023/02/13 13:16:07;;;;;;;8.13;6.37;;;;;;;;;;4993544;28;20420;-42
2023/02/13 13:18:39;;;;;;;7.30;5.80;;;;;;;;;;4993701;28;20423;-42
2023/02/13 13:21:24;;;;;;;5.23;4.17;;;;;;;;;;4993420;28;20416;-43
2023/02/13 13:23:59;;;;;;;6.83;6.00;;;;;;;;;;4997285;28;20502;-47
2023/02/13 13:26:33;;;;;;;6.57;5.67;;;;;;;;;;4993720;28;20415;-43
2023/02/13 13:29:00;;;;;;;8.50;5.00;;;;;;;;;;4992655;28;20467;-43
2023/02/13 13:31:27;;;;;;;6.00;4.30;;;;;;;;;;4993561;28;20943;-46
2023/02/13 13:33:54;;;;;;;5.27;4.33;;;;;;;;;;4993286;28;20444;-43
2023/02/13 13:36:35;;;;;;;10.10;5.33;;;;;;;;;;4993400;28;20412;-43
2023/02/13 13:39:08;;;;;;;8.50;4.93;;;;;;;;;;4992538;28;20435;-46
2023/02/13 13:41:43;;;;;;;7.47;5.17;;;;;;;;;;4992153;28;20405;-53
2023/02/13 13:44:25;;;;;;;5.40;4.90;;;;;;;;;;4993493;28;20407;-45
2023/02/13 13:47:00;;;;;;;7.60;5.10;;;;;;;;;;4974150;28;20694;-42
2023/02/13 13:49:45;;;;;;;5.10;4.60;;;;;;;;;;4972981;28;20471;-44
2023/02/13 13:52:19;;;;;;;5.53;4.87;;;;;;;;;;4973920;28;20838;-42
2023/02/13 13:54:50;;;;;;;7.40;5.53;;;;;;;;;;4991462;28;20766;-42
2023/02/13 13:57:16;;;;;;;8.03;4.67;;;;;;;;;;4993349;28;20416;-42
2023/02/13 13:59:50;;;;;;;5.20;4.67;;;;;;;;;;4990759;28;20482;-42
2023/02/13 14:02:19;;;;;;;5.53;5.03;;;;;;;;;;4993196;28;20448;-43
2023/02/13 14:04:48;;;;;;;5.40;4.80;;;;;;;;;;4992977;28;20431;-42
2023/02/13 14:07:15;;;;;;;6.63;4.60;;;;;;;;;;4993007;28;20474;-45
2023/02/13 14:09:42;;;;;;;4.53;4.13;;;;;;;;;;4991967;28;20464;-43
2023/02/13 14:12:24;;;;;;;5.43;4.80;;;;;;;;;;4992870;28;20465;-43
2023/02/13 14:14:51;;;;;;;5.50;4.93;;;;;;;;;;4992932;28;20400;-42
2023/02/13 14:17:37;;;;;;;6.90;4.00;;;;;;;;;;4993001;28;20411;-43
2023/02/13 14:20:16;;;;;;;5.13;4.60;;;;;;;;;;4991983;28;20475;-42
2023/02/13 14:22:43;;;;;;;6.20;5.07;;;;;;;;;;4992821;28;20658;-42
2023/02/13 14:25:23;;;;;;;4.87;4.47;;;;;;;;;;4993014;28;20419;-45
2023/02/13 14:27:56;;;;;;;6.40;5.80;;;;;;;;;;4992520;28;20473;-45
2023/02/13 14:30:27;;;;;;;7.07;5.33;;;;;;;;;;4991779;28;20442;-43
2023/02/13 14:32:53;;;;;;;5.80;4.97;;;;;;;;;;4992478;28;20437;-42
2023/02/13 14:35:24;;;;;;;8.93;5.30;;;;;;;;;;4992459;28;20772;-42
2023/02/13 14:38:00;;;;;;;6.63;4.60;;;;;;;;;;4992519;28;20439;-42
2023/02/13 14:40:45;;;;;;;7.07;4.50;;;;;;;;;;4991873;28;20435;-46
2023/02/13 14:43:28;;;;;;;5.70;5.10;;;;;;;;;;4992381;28;20798;-43
2023/02/13 14:45:57;;;;;;;6.30;4.70;;;;;;;;;;4992237;28;20422;-43
2023/02/13 14:48:32;;;;;;;5.83;4.47;;;;;;;;;;4992037;28;20557;-46
2023/02/13 14:50:59;;;;;;;6.93;4.87;;;;;;;;;;4991624;28;20939;-42
2023/02/13 14:53:43;;;;;;;5.47;4.53;;;;;;;;;;4991690;28;20418;-43
2023/02/13 14:56:12;;;;;;;6.47;4.50;;;;;;;;;;4992892;28;20459;-49
2023/02/13 14:58:44;;;;;;;7.93;5.67;;;;;;;;;;4991252;28;20523;-48
2023/02/13 15:01:28;;;;;;;7.07;4.50;;;;;;;;;;4991696;28;20418;-48
2023/02/13 15:03:58;;;;;;;5.10;4.20;;;;;;;;;;4992214;28;20493;-49
2023/02/13 15:06:33;;;;;;;6.57;5.20;;;;;;;;;;4992356;28;20415;-46
2023/02/13 15:09:04;;;;;;;6.20;5.47;;;;;;;;;;4991463;28;20466;-44
2023/02/13 15:11:35;;;;;;;8.00;5.00;;;;;;;;;;4992173;28;20409;-49
2023/02/13 15:14:21;;;;;;;6.47;4.90;;;;;;;;;;4991436;28;20396;-49
2023/02/13 15:16:51;;;;;;;5.50;5.00;;;;;;;;;;4987786;28;20419;-48
2023/02/13 15:19:19;;;;;;;6.70;5.40;;;;;;;;;;4990436;28;20427;-45
2023/02/13 15:21:52;;;;;;;7.00;5.57;;;;;;;;;;4991058;28;20416;-49
2023/02/13 15:24:21;;;;;;;5.30;4.80;;;;;;;;;;4999276;28;21146;-48
2023/02/13 15:26:56;;;;;;;7.67;6.17;;;;;;;;;;4995152;28;20422;-47
2023/02/13 15:29:22;;;;;;;6.10;5.23;;;;;;;;;;4990754;28;20442;-48
2023/02/13 15:31:48;;;;;;;5.13;4.63;;;;;;;;;;4991564;28;20461;-45
2023/02/13 15:34:22;;;;;;;10.80;8.70;;;;;;;;;;4991999;28;20481;-49
2023/02/13 15:36:48;;;;;;;5.77;5.13;;;;;;;;;;4992014;28;20388;-47
2023/02/13 15:39:17;;;;;;;6.60;5.37;;;;;;;;;;4991056;28;20828;-48
2023/02/13 15:41:45;;;;;;;9.13;5.30;;;;;;;;;;4991994;28;20377;-48